Airfield :
LOGIN :

Register | Disclaimer

   EN    FR    IT 

 










Legend :    VFR   Marginal VFR   IFR   Intensive IFR   Very Intensive IFR
Visi :
Ceiling :
>= 8 km
>= 3000ft
5 to 8 km
1000 to 3000 ft
1500m to 5 km
500 to 1000 ft
800 to 1500m
200 to 500 ft
< 800m
< 200 ft
Symbols :   Thunderstorms  Fog  Heavy snow  Heavy precipitations  Wind > 20 kt
SIGMETs :     Misc.  Thunderstorms  Icing  Turbulence  Mountain Waves  Volcanic Ashes






- Airport Elevation : 499 ft
- IATA code : TLS


LFBO - Toulouse / Blagnac

CURRENT METAR :
  • 182030Z AUTO 28004KT CAVOK 10/01 Q1021 NOSIG

EXPIRED METARs :
  • 182000Z AUTO 30004KT CAVOK 11/01 Q1021 NOSIG
  • 181930Z AUTO 29006KT CAVOK 11/01 Q1021 NOSIG
  • 181900Z AUTO 29006KT CAVOK 12/01 Q1020 NOSIG
  • 181830Z AUTO 31006KT CAVOK 13/01 Q1020 NOSIG
  • 181800Z AUTO 32010KT CAVOK 15/01 Q1020 NOSIG
  • 181730Z AUTO 34010KT CAVOK 15/01 Q1020 NOSIG

TAF TAF LFBO
Valid from the 18 at 18:00 until the 20 at 00:00 UTC


181700Z 1818/1924 31010KT CAVOK
BECMG 1820/1822 VRB03KT
ATIS : +33 5 62 74 66 36



MET'MAP, your aeronautical weather chart ! - Copyright ORBIFLY December 2007 - Disclaimer

ORBIFLY MET'MAP TEAM :

Programming & Development : Alexandra Zaïnal
Concept & original design : Baudouin d'Aumeries
Assistance for programming : Marc-Olivier Méhu
Technical & hardware support : Manuel Goepfert

Contact : metmap@orbifly.com




SOURCES & CREDITS :

   NOAA